createdAt,value
2018-06-08T00:01:05.045Z,91.40
2018-06-08T00:05:59.602Z,91.70
2018-06-08T00:10:54.550Z,91.60
2018-06-08T00:15:49.115Z,91.60
2018-06-08T00:20:43.681Z,92.20
2018-06-08T00:25:38.230Z,92.00
2018-06-08T00:30:32.774Z,91.30
2018-06-08T00:35:27.375Z,92.40
2018-06-08T00:40:21.930Z,92.60
2018-06-08T00:45:16.493Z,92.10
2018-06-08T00:50:11.061Z,92.60
2018-06-08T00:55:05.882Z,92.60
2018-06-08T01:00:00.411Z,92.80
2018-06-08T01:04:54.996Z,92.20
2018-06-08T01:09:49.530Z,92.50
2018-06-08T01:14:44.109Z,92.60
2018-06-08T01:19:38.831Z,92.80
2018-06-08T01:24:33.995Z,92.90
2018-06-08T01:29:28.550Z,92.70
2018-06-08T01:34:23.132Z,93.30
2018-06-08T01:39:17.697Z,92.60
2018-06-08T01:44:12.258Z,92.60
2018-06-08T01:49:06.882Z,93.00
2018-06-08T01:54:01.404Z,93.10
2018-06-08T01:58:56.007Z,93.80
2018-06-08T02:03:50.557Z,93.30
2018-06-08T02:08:45.070Z,93.60
2018-06-08T02:13:39.602Z,93.80
2018-06-08T02:18:34.123Z,93.60
2018-06-08T02:23:28.709Z,93.30
2018-06-08T02:28:23.272Z,93.70
2018-06-08T02:33:17.814Z,93.40
2018-06-08T02:38:12.397Z,93.80
2018-06-08T02:43:06.941Z,93.50
2018-06-08T02:48:01.504Z,93.40
2018-06-08T02:52:56.031Z,93.90
2018-06-08T02:57:50.586Z,93.80
2018-06-08T03:02:45.120Z,94.10
2018-06-08T03:07:39.661Z,94.20
2018-06-08T03:12:34.210Z,93.90
2018-06-08T03:17:28.769Z,94.30
2018-06-08T03:22:23.304Z,94.70
2018-06-08T03:27:17.935Z,94.70
2018-06-08T03:32:12.487Z,94.60
2018-06-08T03:37:07.047Z,93.90
2018-06-08T03:42:01.570Z,94.20
2018-06-08T03:46:56.119Z,94.80
2018-06-08T03:51:50.661Z,94.60
2018-06-08T03:56:48.526Z,94.30
2018-06-08T04:01:43.077Z,94.60
2018-06-08T04:06:37.683Z,94.60
2018-06-08T04:11:32.329Z,94.40
2018-06-08T04:16:26.889Z,93.50
2018-06-08T04:21:21.475Z,93.40
2018-06-08T04:26:16.059Z,93.20
2018-06-08T04:31:10.623Z,92.70
2018-06-08T04:36:06.524Z,92.50
2018-06-08T04:41:01.161Z,91.10
2018-06-08T04:45:55.703Z,91.50
2018-06-08T04:50:50.307Z,92.40
2018-06-08T05:00:39.083Z,90.70
2018-06-08T05:05:33.619Z,90.40
2018-06-08T05:10:28.167Z,90.40
2018-06-08T05:15:22.703Z,88.90
2018-06-08T05:20:17.279Z,89.70
2018-06-08T05:25:11.822Z,90.40
2018-06-08T05:30:13.519Z,90.70
2018-06-08T05:35:08.107Z,91.60
2018-06-08T05:40:02.678Z,91.30
2018-06-08T05:49:51.459Z,90.80
2018-06-08T05:54:46.012Z,91.10
2018-06-08T05:59:40.577Z,90.20
2018-06-08T06:04:35.103Z,90.90
2018-06-08T06:09:29.665Z,91.00
2018-06-08T06:14:24.216Z,91.10
2018-06-08T06:19:18.738Z,90.70
2018-06-08T06:24:13.286Z,90.30
2018-06-08T06:29:06.805Z,90.10
2018-06-08T06:34:01.343Z,89.20
2018-06-08T06:38:55.942Z,85.90
2018-06-08T06:43:50.511Z,86.30
2018-06-08T06:48:45.231Z,85.20
2018-06-08T06:53:39.828Z,85.20
2018-06-08T06:58:34.431Z,84.70
2018-06-08T07:03:29.028Z,84.70
2018-06-08T07:08:23.559Z,83.50
2018-06-08T07:13:18.074Z,85.50
2018-06-08T07:18:12.641Z,85.20
2018-06-08T07:23:07.174Z,84.20
2018-06-08T07:28:01.759Z,84.50
2018-06-08T07:32:56.286Z,84.10
2018-06-08T07:37:50.864Z,81.30
2018-06-08T07:42:45.416Z,82.10
2018-06-08T07:47:40.008Z,78.20
2018-06-08T07:52:34.593Z,80.50
2018-06-08T07:57:29.165Z,81.70
2018-06-08T08:02:23.710Z,80.40
2018-06-08T08:07:18.475Z,80.50
2018-06-08T08:12:12.986Z,80.10
2018-06-08T08:17:07.566Z,79.30
2018-06-08T08:22:02.144Z,81.20
2018-06-08T08:26:56.633Z,79.40
2018-06-08T08:31:51.135Z,80.90
2018-06-08T08:36:45.716Z,79.10
2018-06-08T08:41:40.284Z,78.40
2018-06-08T08:46:34.870Z,78.30
2018-06-08T08:51:29.484Z,76.60
2018-06-08T08:56:23.955Z,73.90
2018-06-08T09:01:18.490Z,76.60
2018-06-08T09:06:13.023Z,74.50
2018-06-08T09:11:07.609Z,78.00
2018-06-08T09:16:02.177Z,77.70
2018-06-08T09:20:56.662Z,74.60
2018-06-08T09:25:51.181Z,76.50
2018-06-08T09:30:45.676Z,73.10
2018-06-08T09:35:40.180Z,70.30
2018-06-08T09:40:34.697Z,69.00
2018-06-08T09:45:29.225Z,72.10
2018-06-08T09:50:24.826Z,71.20
2018-06-08T09:55:19.385Z,68.90
2018-06-08T10:00:18.003Z,67.60
2018-06-08T10:05:12.592Z,69.60
2018-06-08T10:10:07.105Z,67.80
2018-06-08T10:15:01.611Z,69.90
2018-06-08T10:19:56.117Z,65.20
2018-06-08T10:24:50.651Z,60.80
2018-06-08T10:29:45.202Z,68.50
2018-06-08T10:34:39.710Z,66.10
2018-06-08T10:39:34.220Z,64.40
2018-06-08T10:44:28.754Z,66.40
2018-06-08T10:49:23.314Z,61.30
2018-06-08T10:54:17.861Z,63.40
2018-06-08T10:59:12.364Z,64.30
2018-06-08T11:04:06.985Z,62.10
2018-06-08T11:09:01.523Z,61.60
2018-06-08T11:13:56.085Z,60.70
2018-06-08T11:18:50.600Z,63.00
2018-06-08T11:23:45.145Z,62.20
2018-06-08T11:28:39.658Z,56.10
2018-06-08T11:33:34.197Z,59.50
2018-06-08T11:38:28.722Z,61.10
2018-06-08T11:43:23.214Z,64.80
2018-06-08T11:48:17.762Z,63.10
2018-06-08T11:53:12.298Z,62.60
2018-06-08T11:58:06.834Z,60.50
2018-06-08T12:03:01.367Z,63.20
2018-06-08T12:07:55.880Z,60.40
2018-06-08T12:12:50.388Z,61.30
2018-06-08T12:17:44.950Z,60.40
2018-06-08T12:22:39.561Z,59.80
2018-06-08T12:27:34.086Z,59.10
2018-06-08T12:32:28.643Z,59.10
2018-06-08T12:37:23.183Z,58.90
2018-06-08T12:42:17.727Z,58.90
2018-06-08T12:47:12.330Z,57.40
2018-06-08T12:52:06.914Z,61.80
2018-06-08T12:57:01.487Z,60.60
2018-06-08T13:01:56.064Z,59.80
2018-06-08T13:06:50.671Z,61.50
2018-06-08T13:11:45.243Z,58.40
2018-06-08T13:16:39.819Z,57.30
2018-06-08T13:21:34.451Z,57.60
2018-06-08T13:26:29.026Z,58.20
2018-06-08T13:31:23.574Z,58.90
2018-06-08T13:36:18.192Z,58.00
2018-06-08T13:41:12.764Z,58.30
2018-06-08T13:46:23.881Z,59.50
2018-06-08T13:51:18.542Z,58.90
2018-06-08T13:56:13.127Z,56.20
2018-06-08T14:01:07.734Z,60.10
2018-06-08T14:06:02.279Z,58.00
2018-06-08T14:10:56.839Z,58.90
2018-06-08T14:15:51.454Z,56.60
2018-06-08T14:20:46.001Z,56.30
2018-06-08T14:25:40.595Z,60.20
2018-06-08T14:30:35.202Z,57.30
2018-06-08T14:35:29.763Z,55.20
2018-06-08T14:40:24.335Z,57.00
2018-06-08T14:45:19.009Z,55.80
2018-06-08T14:50:13.615Z,66.20
2018-06-08T14:55:08.268Z,74.80
2018-06-08T15:00:02.908Z,78.10
2018-06-08T15:04:57.567Z,84.80
2018-06-08T15:09:52.286Z,91.00
2018-06-08T15:14:46.854Z,91.80
2018-06-08T15:19:41.585Z,91.50
2018-06-08T15:24:38.475Z,91.50
2018-06-08T15:29:33.030Z,91.90
2018-06-08T15:34:27.696Z,91.80
2018-06-08T15:39:22.524Z,90.50
2018-06-08T15:44:17.150Z,91.30
2018-06-08T15:49:11.787Z,90.80
2018-06-08T15:54:06.389Z,92.20
2018-06-08T15:59:01.002Z,92.60
2018-06-08T16:03:55.684Z,93.80
2018-06-08T16:08:50.420Z,93.50
2018-06-08T16:13:46.059Z,94.80
2018-06-08T16:18:40.850Z,96.10
2018-06-08T16:23:35.485Z,95.00
2018-06-08T16:28:30.173Z,95.90
2018-06-08T16:33:24.827Z,97.60
2018-06-08T16:38:19.515Z,97.30
2018-06-08T16:43:14.266Z,97.80
2018-06-08T16:48:09.058Z,97.10
2018-06-08T16:53:04.015Z,96.90
2018-06-08T16:57:58.854Z,96.60
2018-06-08T17:02:53.738Z,98.50
2018-06-08T17:07:48.632Z,97.30
2018-06-08T17:12:43.648Z,98.20
2018-06-08T17:17:38.689Z,97.80
2018-06-08T17:22:33.697Z,98.70
2018-06-08T17:27:31.869Z,98.50
2018-06-08T17:32:27.102Z,99.90
2018-06-08T17:37:22.680Z,99.90
2018-06-08T17:42:46.132Z,99.90
2018-06-08T17:48:04.794Z,99.90
2018-06-08T17:52:59.965Z,99.90
2018-06-08T17:58:01.707Z,99.90
2018-06-08T18:02:56.938Z,99.90
2018-06-08T18:07:52.098Z,99.90
2018-06-08T18:12:47.093Z,99.90
2018-06-08T18:18:06.298Z,99.90
2018-06-08T18:23:01.551Z,99.90
2018-06-08T18:27:57.033Z,99.90
2018-06-08T18:33:05.504Z,99.90
2018-06-08T18:38:05.169Z,99.90
2018-06-08T18:43:16.809Z,99.90
2018-06-08T18:53:36.296Z,99.90
2018-06-08T18:58:31.535Z,99.90
2018-06-08T19:03:32.616Z,99.90
2018-06-08T19:08:42.463Z,99.90
2018-06-08T19:13:41.977Z,99.90
2018-06-08T19:18:37.104Z,99.90
2018-06-08T19:23:32.272Z,99.90
2018-06-08T19:28:27.352Z,99.90
2018-06-08T19:33:22.659Z,99.90
2018-06-08T19:38:17.875Z,99.90
2018-06-08T19:43:12.995Z,99.90
2018-06-08T19:48:09.483Z,99.90
2018-06-08T19:53:04.649Z,99.90
2018-06-08T19:57:59.885Z,99.90
2018-06-08T20:02:54.962Z,99.90
2018-06-08T20:07:50.136Z,99.90
2018-06-08T20:12:45.477Z,99.90
2018-06-08T20:17:40.648Z,99.90
2018-06-08T20:22:35.707Z,99.90
2018-06-08T20:27:32.064Z,99.90
2018-06-08T20:32:26.969Z,99.90
2018-06-08T20:37:21.926Z,99.90
2018-06-08T20:42:17.087Z,99.90
2018-06-08T20:47:11.872Z,99.90
2018-06-08T20:52:06.936Z,99.90
2018-06-08T20:57:19.244Z,99.90
2018-06-08T21:02:14.308Z,99.90
2018-06-08T21:07:09.104Z,99.90
2018-06-08T21:12:04.140Z,99.90
2018-06-08T21:16:59.076Z,99.90
2018-06-08T21:21:54.028Z,99.90
2018-06-08T21:26:49.031Z,99.90
2018-06-08T21:31:44.150Z,99.90
2018-06-08T21:36:54.562Z,99.90
2018-06-08T21:41:49.631Z,99.90
2018-06-08T21:46:44.549Z,99.90
2018-06-08T21:51:39.542Z,99.90
2018-06-08T21:56:34.466Z,99.90
2018-06-08T22:01:29.575Z,99.90
2018-06-08T22:11:49.468Z,99.90
2018-06-08T22:16:44.589Z,99.90
2018-06-08T22:21:39.502Z,99.90
2018-06-08T22:26:34.503Z,99.90
2018-06-08T22:31:29.608Z,99.90
2018-06-08T22:36:25.740Z,99.90
2018-06-08T22:41:24.516Z,99.90
2018-06-08T22:51:38.848Z,99.90
2018-06-08T22:56:33.985Z,99.90
2018-06-08T23:01:28.914Z,99.90
2018-06-08T23:06:23.804Z,99.90
2018-06-08T23:11:18.829Z,99.90
2018-06-08T23:16:13.764Z,99.90
2018-06-08T23:21:08.720Z,99.90
2018-06-08T23:26:03.812Z,99.90
2018-06-08T23:30:58.835Z,99.90
2018-06-08T23:35:53.859Z,99.90
2018-06-08T23:40:48.869Z,99.90
2018-06-08T23:45:43.842Z,99.90
2018-06-08T23:50:38.916Z,99.90
2018-06-08T23:55:33.831Z,99.90
